Etusivu
METAR-TAF:

METAR-TAF

Lentoasemat :

Fayetteville, Tennessee, Yhdysvallat

Leveyspiiri: 35-03-35N, Pituuspiiri: 086-33-50W, korkeus merenpinnasta: 300 m

Tämänhetkinen sää

Tämä raportti tehtiin 23 minuuttia sitten, kello 05.55 UTC
tyyntä
Lämpötila 23°C
Kosteus 83%
Ilmanpaine 1017 hPa
Näkyvyys: 16.1 km
selkeää

METAR: KFYM 170555Z AUTO 00000KT 10SM CLR 23/20 A3003 RMK A01

Aika: 01:18 (06:18 UTC)


TAF: puuttuu

Säähavainnot ja -ennusteet yli 4000 lentoasemalta (METAR- ja TAF-raportit).

Käytössä olevat sääasemat on merkitty karttaan keltaisilla ja punaisilla pisteillä.

Aseta hiiri pisteen päälle nähdäksesi sääaseman nimen.

Klikkaa sitten nähdäksesi säähavainnot ja -ennusteet.

Kartan vaihtaminen: klikkaa mustalla rastilla varustettuja vihreitä pisteitä, niin voit zoomata sisään; viivalla varustettua vihreää pistettä, niin voit zoomata ulos tai vihreitä nuolia, niin pääset viereisille kartoille.


METAR-TAF: